Harvard, Illinois
Current Conditions -  °F | °C
As of 9:55 AM on Sunday 23 Nov 2014 (Local Time) from KBUU Reporting Station
Light Rain Light Rain  
Wind Chill: 42°   Ceiling: 1700
Heat Index: 46°   Visibility: 5mi
Dew Point: 45°   Wind: 7mph
Humidity: 96%   Direction: 180°S
Pressure: 29.68"   Gusts: NA
Location:  42.42°N, 88.62°W
Report Text: KBUU 231555Z AUTO 18006KT 5SM -RA BKN017 BKN025 OVC031 08/07 A2968 RMK AO2 T00770071
Loading
Personal Weather Stations






























Interactive Weather Map New forecast layout! Learn more

10-Day Weather Forecast

Advertisements
Track Severe Weather on mobile